Time;durP1;ratioP1;P1;durP2;ratioP2;P2;SDS_P1;SDS_P2;PMS_P1;PMS_P2;Temp;Humidity;BMP_temperature;BMP_pressure;BME280_temperature;BME280_humidity;BME280_pressure;Samples;Min_cycle;Max_cycle;Signal;HPM_P1;HPM_P2
2022/04/22 00:01:16;;;;;;;6.60;3.85;;;6.20;99.90;;;;;;5029459;28;20025;-54
2022/04/22 00:03:42;;;;;;;4.65;3.60;;;6.20;99.90;;;;;;5044227;28;20099;-54
2022/04/22 00:06:08;;;;;;;8.38;3.15;;;6.10;99.90;;;;;;5029344;28;20480;-51
2022/04/22 00:08:34;;;;;;;6.88;4.13;;;6.10;99.90;;;;;;5029287;28;20095;-55
2022/04/22 00:13:44;;;;;;;5.82;3.30;;;6.10;99.90;;;;;;5029803;28;20118;-57
2022/04/22 00:16:10;;;;;;;5.93;3.58;;;6.00;99.90;;;;;;5011575;28;20025;-55
2022/04/22 00:18:36;;;;;;;4.53;3.78;;;6.00;99.90;;;;;;5029360;28;20179;-52
2022/04/22 00:21:02;;;;;;;6.07;4.10;;;6.00;99.90;;;;;;5028917;28;20113;-55
2022/04/22 00:23:28;;;;;;;7.00;3.60;;;6.00;99.90;;;;;;5043554;28;20033;-54
2022/04/22 00:25:55;;;;;;;5.35;4.13;;;6.00;99.90;;;;;;5043749;28;20635;-53
2022/04/22 00:28:20;;;;;;;5.15;3.53;;;6.00;99.90;;;;;;5028894;28;20026;-56
2022/04/22 00:30:47;;;;;;;10.73;3.85;;;6.00;99.90;;;;;;5029806;28;20028;-56
2022/04/22 00:33:14;;;;;;;6.28;3.35;;;6.00;99.90;;;;;;5030481;28;20037;-52
2022/04/22 00:35:40;;;;;;;5.95;3.35;;;6.00;99.90;;;;;;5033867;28;20133;-52
2022/04/22 00:38:06;;;;;;;5.57;3.45;;;6.00;99.90;;;;;;5009108;28;20029;-55
2022/04/22 00:40:32;;;;;;;6.75;3.40;;;6.00;99.90;;;;;;5028959;28;20546;-54
2022/04/22 00:42:57;;;;;;;3.35;3.05;;;6.00;99.90;;;;;;5029585;28;20527;-53
2022/04/22 00:45:23;;;;;;;5.10;3.50;;;6.00;99.90;;;;;;5028860;28;20033;-54
2022/04/22 00:47:49;;;;;;;6.22;3.10;;;5.90;99.90;;;;;;5028797;28;20378;-55
2022/04/22 00:50:14;;;;;;;5.18;2.83;;;5.90;99.90;;;;;;5029174;28;20060;-52
2022/04/22 00:52:40;;;;;;;4.47;3.45;;;5.90;99.90;;;;;;5028513;28;20430;-54
2022/04/22 00:55:08;;;;;;;6.03;3.13;;;5.80;99.90;;;;;;5028990;28;20025;-51
2022/04/22 00:57:34;;;;;;;6.90;3.63;;;5.80;99.90;;;;;;5030044;28;20480;-55
2022/04/22 01:00:01;;;;;;;6.00;3.05;;;5.80;99.90;;;;;;5026556;28;20408;-52
2022/04/22 01:02:26;;;;;;;4.75;2.97;;;5.70;99.90;;;;;;5027506;28;20033;-52
2022/04/22 01:10:21;;;;;;;5.65;3.67;;;5.70;99.90;;;;;;5048161;28;20075;-55
2022/04/22 01:12:46;;;;;;;5.85;4.00;;;5.70;99.90;;;;;;5048138;28;20025;-53
2022/04/22 01:15:12;;;;;;;7.60;4.15;;;5.70;99.90;;;;;;5048035;28;20021;-55
2022/04/22 01:17:38;;;;;;;7.75;3.92;;;5.60;99.90;;;;;;5048839;28;20033;-54
2022/04/22 01:20:05;;;;;;;8.48;3.30;;;5.60;99.90;;;;;;5030616;28;20104;-53
2022/04/22 01:22:30;;;;;;;6.38;3.08;;;5.50;99.90;;;;;;5034561;28;20033;-52
2022/04/22 01:25:00;;;;;;;5.78;3.17;;;5.50;99.90;;;;;;5028231;28;20025;-50
2022/04/22 01:27:29;;;;;;;6.18;4.00;;;5.40;99.90;;;;;;5030356;28;20033;-55
2022/04/22 01:30:00;;;;;;;8.52;4.15;;;5.50;99.90;;;;;;5029088;28;20053;-52
2022/04/22 01:32:27;;;;;;;5.15;3.33;;;5.50;99.90;;;;;;5028073;28;20030;-50
2022/04/22 01:34:53;;;;;;;5.47;3.05;;;5.40;99.90;;;;;;5028451;28;20029;-52
2022/04/22 01:37:19;;;;;;;6.57;3.42;;;5.40;99.90;;;;;;5037419;28;20036;-52
2022/04/22 01:39:45;;;;;;;3.92;3.47;;;5.40;99.90;;;;;;5048237;28;20037;-52
2022/04/22 01:42:10;;;;;;;3.95;2.97;;;5.40;99.90;;;;;;5048103;28;20495;-51
2022/04/22 01:44:36;;;;;;;6.30;3.47;;;5.40;99.90;;;;;;5047815;28;20037;-54
2022/04/22 01:47:03;;;;;;;4.60;3.45;;;5.40;99.90;;;;;;5048902;28;20108;-51
2022/04/22 01:49:29;;;;;;;8.43;3.90;;;5.30;99.90;;;;;;5050231;28;20402;-55
2022/04/22 01:51:54;;;;;;;5.82;3.25;;;5.40;99.90;;;;;;5050772;28;20074;-54
2022/04/22 01:54:20;;;;;;;5.50;3.70;;;5.30;99.90;;;;;;5050061;28;20028;-52
2022/04/22 01:56:46;;;;;;;3.40;3.05;;;5.30;99.90;;;;;;5052229;28;20052;-55
2022/04/22 01:59:11;;;;;;;9.02;3.30;;;5.20;99.90;;;;;;5051066;28;20108;-52
2022/04/22 02:01:37;;;;;;;3.90;2.88;;;5.20;99.90;;;;;;5033482;28;20082;-55
2022/04/22 02:04:03;;;;;;;5.22;3.30;;;5.20;99.90;;;;;;5051188;28;20029;-53
2022/04/22 02:06:28;;;;;;;3.35;2.38;;;5.20;99.90;;;;;;5050092;28;20041;-52
2022/04/22 02:08:54;;;;;;;7.00;2.85;;;5.10;99.90;;;;;;5017571;28;20530;-54
2022/04/22 02:11:20;;;;;;;6.53;2.80;;;5.10;99.90;;;;;;5031345;28;20021;-53
2022/04/22 02:13:46;;;;;;;5.68;2.97;;;5.10;99.90;;;;;;5031163;28;20030;-54
2022/04/22 02:16:12;;;;;;;5.13;3.28;;;5.10;99.90;;;;;;5031356;28;20060;-52
2022/04/22 02:18:39;;;;;;;3.95;3.30;;;5.10;99.90;;;;;;5031366;28;20531;-51
2022/04/22 02:21:06;;;;;;;5.72;3.65;;;5.10;99.90;;;;;;5031002;28;20028;-51
2022/04/22 02:23:32;;;;;;;5.63;3.22;;;5.10;99.90;;;;;;5044192;28;20041;-54
2022/04/22 02:25:58;;;;;;;3.83;3.00;;;5.00;99.90;;;;;;5048882;28;20032;-51
2022/04/22 02:28:34;;;;;;;4.43;2.88;;;5.00;99.90;;;;;;5050577;28;20521;-52
2022/04/22 02:31:10;;;;;;;7.30;3.28;;;5.00;99.90;;;;;;5039921;28;20479;-55
2022/04/22 02:33:38;;;;;;;6.80;3.47;;;5.00;99.90;;;;;;5031241;28;20065;-54
2022/04/22 02:36:06;;;;;;;6.45;3.22;;;5.00;99.90;;;;;;5030963;28;20052;-56
2022/04/22 02:38:32;;;;;;;5.20;3.13;;;5.00;99.90;;;;;;5046246;28;20029;-57
2022/04/22 02:46:28;;;;;;;4.68;2.90;;;5.00;99.90;;;;;;5024306;28;20028;-53
2022/04/22 02:48:57;;;;;;;3.28;2.97;;;5.00;99.90;;;;;;5036984;28;20021;-53
2022/04/22 02:51:23;;;;;;;6.55;2.60;;;5.00;99.90;;;;;;5049443;28;20094;-52
2022/04/22 02:53:49;;;;;;;7.22;3.10;;;5.00;99.90;;;;;;5050624;28;20017;-53
2022/04/22 02:56:16;;;;;;;4.65;2.75;;;4.90;99.90;;;;;;5034567;28;20034;-54
2022/04/22 02:58:42;;;;;;;6.55;3.60;;;4.90;99.90;;;;;;5049032;28;20064;-56
2022/04/22 03:01:08;;;;;;;4.47;3.35;;;4.90;99.90;;;;;;5050060;28;20492;-53
2022/04/22 03:03:33;;;;;;;7.93;3.63;;;5.00;99.90;;;;;;5049770;28;20044;-54
2022/04/22 03:05:59;;;;;;;5.80;3.45;;;4.90;99.90;;;;;;5032183;28;20471;-53
2022/04/22 03:08:24;;;;;;;5.25;2.88;;;5.00;99.90;;;;;;5050594;28;20480;-55
2022/04/22 03:10:51;;;;;;;4.32;3.42;;;4.90;99.90;;;;;;5021508;28;20633;-53
2022/04/22 03:13:16;;;;;;;6.70;3.30;;;5.00;99.90;;;;;;5030122;28;20431;-52
2022/04/22 03:15:42;;;;;;;3.95;2.88;;;5.00;99.90;;;;;;5045323;28;20109;-50
2022/04/22 03:18:09;;;;;;;7.82;3.35;;;5.00;99.90;;;;;;5032892;28;20051;-52
2022/04/22 03:20:34;;;;;;;3.67;2.75;;;4.90;99.90;;;;;;5049774;28;20439;-53
2022/04/22 03:23:00;;;;;;;9.90;4.20;;;4.90;99.90;;;;;;5049939;28;20025;-50
2022/04/22 03:25:25;;;;;;;4.18;3.10;;;4.90;99.90;;;;;;5049887;28;20527;-51
2022/04/22 03:27:51;;;;;;;6.07;3.05;;;4.90;99.90;;;;;;5048888;28;20057;-51
2022/04/22 03:30:17;;;;;;;5.93;3.45;;;5.00;99.90;;;;;;5049807;28;20032;-52
2022/04/22 03:32:43;;;;;;;3.42;3.13;;;5.00;99.90;;;;;;5049194;28;20120;-54
2022/04/22 03:35:09;;;;;;;4.95;3.13;;;5.00;99.90;;;;;;5050113;28;20100;-51
2022/04/22 03:37:35;;;;;;;5.03;3.38;;;5.00;99.90;;;;;;5032113;28;20029;-50
2022/04/22 03:40:01;;;;;;;8.40;3.25;;;5.00;99.90;;;;;;5029944;28;20075;-50
2022/04/22 03:42:29;;;;;;;7.15;3.50;;;5.00;99.90;;;;;;5045685;28;20515;-54
2022/04/22 03:44:58;;;;;;;4.43;3.28;;;5.00;99.90;;;;;;5049606;28;20403;-54
2022/04/22 03:47:23;;;;;;;6.65;3.72;;;5.00;99.90;;;;;;5046393;28;20021;-52
2022/04/22 03:49:49;;;;;;;5.82;3.40;;;5.00;99.90;;;;;;5031553;28;20499;-52
2022/04/22 03:52:15;;;;;;;5.38;3.38;;;5.00;99.90;;;;;;5030949;28;20021;-54
2022/04/22 03:54:41;;;;;;;6.50;3.78;;;5.00;99.90;;;;;;5049884;28;20021;-56
2022/04/22 03:59:51;;;;;;;8.40;4.03;;;5.00;99.90;;;;;;5009856;28;20117;-52
2022/04/22 04:02:16;;;;;;;6.20;3.58;;;5.00;99.90;;;;;;5024680;28;20113;-54
2022/04/22 04:04:42;;;;;;;5.50;3.47;;;5.00;99.90;;;;;;5029395;28;20061;-52
2022/04/22 04:07:08;;;;;;;6.25;3.78;;;5.00;99.90;;;;;;5033336;28;20484;-53
2022/04/22 04:17:45;;;;;;;4.25;3.50;;;5.00;99.90;;;;;;5029348;28;20575;-55
2022/04/22 04:25:40;;;;;;;6.07;3.83;;;5.00;99.90;;;;;;5043748;28;20028;-52
2022/04/22 04:28:09;;;;;;;6.50;3.80;;;5.00;99.90;;;;;;5049310;28;20086;-56
2022/04/22 04:30:42;;;;;;;8.88;4.18;;;5.00;99.90;;;;;;5033990;28;20513;-54
2022/04/22 04:33:09;;;;;;;4.40;3.42;;;5.00;99.90;;;;;;5028888;28;20033;-53
2022/04/22 04:35:35;;;;;;;8.90;4.63;;;5.00;99.90;;;;;;5028338;28;20421;-54
2022/04/22 04:38:02;;;;;;;7.38;3.92;;;5.00;99.90;;;;;;5029123;28;20033;-55
2022/04/22 04:40:28;;;;;;;7.50;3.15;;;5.00;99.90;;;;;;5030094;28;20022;-52
2022/04/22 04:42:53;;;;;;;9.02;4.75;;;5.10;99.90;;;;;;5038057;28;20108;-56
2022/04/22 04:45:19;;;;;;;4.53;3.90;;;5.10;99.90;;;;;;5049204;28;20021;-53
2022/04/22 04:47:45;;;;;;;6.75;3.70;;;5.10;99.90;;;;;;5030802;28;20083;-52
2022/04/22 04:50:11;;;;;;;6.20;3.90;;;5.10;99.90;;;;;;5030209;28;20029;-53
2022/04/22 04:52:38;;;;;;;10.02;4.72;;;5.10;99.90;;;;;;5028660;28;20053;-53
2022/04/22 04:55:08;;;;;;;5.68;4.07;;;5.20;99.90;;;;;;5028939;28;20018;-53
2022/04/22 04:57:35;;;;;;;5.53;4.20;;;5.30;99.90;;;;;;5028930;28;20025;-54
2022/04/22 05:00:08;;;;;;;9.20;4.05;;;5.30;99.90;;;;;;5029382;28;20018;-51
2022/04/22 05:02:34;;;;;;;5.45;4.13;;;5.40;99.90;;;;;;5046719;28;20413;-50
2022/04/22 05:05:01;;;;;;;8.40;3.75;;;5.40;99.90;;;;;;5029218;28;20117;-51
2022/04/22 05:07:26;;;;;;;6.07;3.92;;;5.50;99.90;;;;;;5029053;28;20030;-53
2022/04/22 05:09:52;;;;;;;4.00;3.38;;;5.50;99.90;;;;;;5028879;28;20124;-50
2022/04/22 05:12:18;;;;;;;5.47;4.10;;;5.50;99.90;;;;;;5028396;28;20068;-55
2022/04/22 05:14:46;;;;;;;10.60;4.88;;;5.60;99.90;;;;;;5028609;28;20061;-55
2022/04/22 05:17:11;;;;;;;4.35;3.58;;;5.60;99.90;;;;;;5028572;28;20060;-56
2022/04/22 05:19:37;;;;;;;3.97;3.50;;;5.70;99.90;;;;;;5030057;28;20069;-53
2022/04/22 05:22:03;;;;;;;6.90;3.90;;;5.70;99.90;;;;;;5034337;28;20035;-54
2022/04/22 05:24:31;;;;;;;6.85;3.40;;;5.90;99.90;;;;;;5051799;28;20025;-54
2022/04/22 05:26:56;;;;;;;7.78;4.28;;;5.90;99.90;;;;;;5052161;28;20473;-56
2022/04/22 05:34:50;;;;;;;8.32;4.38;;;6.20;99.90;;;;;;5038324;28;20040;-54
2022/04/22 05:37:16;;;;;;;5.13;3.60;;;6.30;99.90;;;;;;5051824;28;20058;-55
2022/04/22 05:39:43;;;;;;;3.88;3.33;;;6.40;99.90;;;;;;5050173;28;20032;-51
2022/04/22 05:42:09;;;;;;;5.50;3.40;;;6.50;99.90;;;;;;5033838;28;20423;-58
2022/04/22 05:44:35;;;;;;;5.30;3.72;;;6.60;99.90;;;;;;5045138;28;20032;-54
2022/04/22 05:47:01;;;;;;;5.97;3.47;;;6.70;99.90;;;;;;5045180;28;20036;-58
2022/04/22 05:49:27;;;;;;;7.05;3.15;;;6.70;99.90;;;;;;5047034;28;20052;-55
2022/04/22 05:51:54;;;;;;;7.30;3.47;;;6.70;99.90;;;;;;5032836;28;20029;-53
2022/04/22 05:54:20;;;;;;;8.13;3.70;;;6.70;99.90;;;;;;5033007;28;20076;-56
2022/04/22 05:56:45;;;;;;;8.05;3.25;;;6.80;99.90;;;;;;5031712;28;20448;-51
2022/04/22 05:59:11;;;;;;;10.10;3.65;;;6.80;99.90;;;;;;5031859;28;20033;-55
2022/04/22 06:01:37;;;;;;;7.90;3.90;;;6.90;99.90;;;;;;5031440;28;20043;-54
2022/04/22 06:04:02;;;;;;;8.10;3.10;;;7.00;99.90;;;;;;5031819;28;20022;-59
2022/04/22 06:06:28;;;;;;;6.25;3.97;;;7.00;99.90;;;;;;5031591;28;20057;-52
2022/04/22 06:11:38;;;;;;;5.97;3.03;;;7.20;99.90;;;;;;5031106;28;20048;-56
2022/04/22 06:14:03;;;;;;;7.47;3.38;;;7.20;99.90;;;;;;5036101;28;20488;-56
2022/04/22 06:16:29;;;;;;;6.82;3.67;;;7.30;99.90;;;;;;5034345;28;20036;-56
2022/04/22 06:18:55;;;;;;;5.80;3.10;;;7.40;99.90;;;;;;5032541;28;20043;-52
2022/04/22 06:21:21;;;;;;;5.78;3.08;;;7.50;99.90;;;;;;5038759;28;20172;-53
2022/04/22 06:23:46;;;;;;;6.22;3.08;;;7.60;99.90;;;;;;5032134;28;20388;-49
2022/04/22 06:26:12;;;;;;;6.03;3.22;;;7.70;99.90;;;;;;5032587;28;20025;-54
2022/04/22 06:28:37;;;;;;;6.15;3.80;;;7.80;99.90;;;;;;5046195;28;20021;-53
2022/04/22 06:31:03;;;;;;;5.72;3.22;;;7.80;99.90;;;;;;5049247;28;20028;-55
2022/04/22 06:33:29;;;;;;;8.55;3.25;;;7.90;99.90;;;;;;5050393;28;20040;-55
2022/04/22 06:35:59;;;;;;;7.82;3.45;;;8.00;99.90;;;;;;5051149;28;20037;-50
2022/04/22 06:38:26;;;;;;;4.70;3.38;;;8.10;99.90;;;;;;5050996;28;20385;-54
2022/04/22 06:46:20;;;;;;;9.70;3.05;;;8.40;99.90;;;;;;5050831;28;20099;-54
2022/04/22 06:48:46;;;;;;;5.65;2.95;;;8.50;99.90;;;;;;5050778;28;20021;-55
2022/04/22 06:51:13;;;;;;;5.57;3.15;;;8.60;99.90;;;;;;5050142;28;20033;-58
2022/04/22 06:53:39;;;;;;;5.75;3.00;;;8.80;99.90;;;;;;5050572;28;20104;-53
2022/04/22 06:56:06;;;;;;;4.72;2.53;;;8.90;99.90;;;;;;5050454;28;20108;-54
2022/04/22 06:58:34;;;;;;;5.75;3.00;;;9.10;99.90;;;;;;5050569;28;20024;-57
2022/04/22 07:00:59;;;;;;;5.10;2.90;;;9.10;99.90;;;;;;5050460;28;20025;-57
2022/04/22 07:03:25;;;;;;;6.95;3.17;;;9.20;99.90;;;;;;5033826;28;20040;-51
2022/04/22 07:05:52;;;;;;;9.23;3.47;;;9.30;99.90;;;;;;5030781;28;20033;-57
2022/04/22 07:08:19;;;;;;;6.20;3.17;;;9.50;99.90;;;;;;5030687;28;20140;-52
2022/04/22 07:10:47;;;;;;;4.30;2.85;;;9.70;99.90;;;;;;5030369;28;20036;-54
2022/04/22 07:13:14;;;;;;;5.22;2.83;;;9.90;99.90;;;;;;5030116;28;20032;-54
2022/04/22 07:15:40;;;;;;;7.32;2.70;;;9.90;99.90;;;;;;5048015;28;20021;-53
2022/04/22 07:18:07;;;;;;;8.25;2.63;;;10.00;99.90;;;;;;5049990;28;20024;-53
2022/04/22 07:20:33;;;;;;;4.93;2.78;;;10.10;99.90;;;;;;5048152;28;20511;-52
2022/04/22 07:23:02;;;;;;;6.07;2.58;;;10.20;99.90;;;;;;5050199;28;20029;-54
2022/04/22 07:25:28;;;;;;;4.78;2.53;;;10.30;99.90;;;;;;5049523;28;20124;-57
2022/04/22 07:27:55;;;;;;;10.73;3.25;;;10.30;99.90;;;;;;5049885;28;20021;-57
2022/04/22 07:30:22;;;;;;;5.13;2.60;;;10.20;99.90;;;;;;5031562;28;20025;-54
2022/04/22 07:32:49;;;;;;;5.70;2.75;;;10.40;99.90;;;;;;5029452;28;20488;-55
2022/04/22 07:35:19;;;;;;;6.05;2.88;;;10.40;99.90;;;;;;5030151;28;20041;-54
2022/04/22 07:37:47;;;;;;;4.85;2.35;;;10.60;99.90;;;;;;5030165;28;20033;-55
2022/04/22 07:40:14;;;;;;;6.10;2.88;;;10.90;99.90;;;;;;5029668;28;20040;-53
2022/04/22 07:48:18;;;;;;;5.22;2.47;;;11.30;99.90;;;;;;5030333;28;20035;-54
2022/04/22 07:50:46;;;;;;;6.63;2.60;;;11.60;99.90;;;;;;5029840;28;20014;-57
2022/04/22 07:53:11;;;;;;;5.70;3.00;;;11.80;99.90;;;;;;5030436;28;20018;-52
2022/04/22 07:55:37;;;;;;;5.72;2.80;;;11.80;99.90;;;;;;5029449;28;20098;-56
2022/04/22 07:58:03;;;;;;;2.58;2.20;;;11.90;99.90;;;;;;5029722;28;20029;-56
2022/04/22 08:00:28;;;;;;;6.63;2.92;;;11.90;99.90;;;;;;5030607;28;20033;-56
2022/04/22 08:02:54;;;;;;;6.00;3.53;;;11.70;99.90;;;;;;5040609;28;20073;-58
2022/04/22 08:05:19;;;;;;;4.85;2.42;;;11.70;99.90;;;;;;5029642;28;20105;-57
2022/04/22 08:07:45;;;;;;;4.60;2.97;;;11.80;99.90;;;;;;5044695;28;20477;-52
2022/04/22 08:10:10;;;;;;;5.53;2.75;;;11.90;99.90;;;;;;5029453;28;20327;-55
2022/04/22 08:12:36;;;;;;;6.43;2.63;;;11.90;99.90;;;;;;5029100;28;20473;-53
2022/04/22 08:15:03;;;;;;;6.10;2.75;;;12.00;99.90;;;;;;5030481;28;20029;-57
2022/04/22 08:17:36;;;;;;;5.88;2.67;;;12.00;99.90;;;;;;5029201;28;20401;-56
2022/04/22 08:20:04;;;;;;;7.47;3.53;;;12.20;99.90;;;;;;5029248;28;20397;-58
2022/04/22 08:22:30;;;;;;;5.78;2.92;;;12.20;99.90;;;;;;5029373;28;20129;-54
2022/04/22 08:24:56;;;;;;;4.80;2.60;;;12.10;99.90;;;;;;5030161;28;20116;-55
2022/04/22 08:27:23;;;;;;;5.32;3.17;;;12.10;99.90;;;;;;5029172;28;20048;-55
2022/04/22 08:29:49;;;;;;;7.38;2.97;;;12.30;99.90;;;;;;5039114;28;20505;-54
2022/04/22 08:32:14;;;;;;;5.78;2.58;;;12.30;99.90;;;;;;5048699;28;20036;-51
2022/04/22 08:34:40;;;;;;;5.00;3.05;;;12.50;99.90;;;;;;5045796;28;20720;-55
2022/04/22 08:37:05;;;;;;;6.38;3.10;;;12.70;99.90;;;;;;5048812;28;20029;-54
2022/04/22 08:39:31;;;;;;;6.97;2.47;;;12.50;99.90;;;;;;5048506;28;20025;-53
2022/04/22 08:42:00;;;;;;;4.25;2.45;;;12.60;99.90;;;;;;5039746;28;20544;-55
2022/04/22 08:44:27;;;;;;;3.70;2.58;;;12.80;99.90;;;;;;5028747;28;20029;-54
2022/04/22 08:52:22;;;;;;;6.18;2.67;;;13.20;99.90;;;;;;5028969;28;20103;-54
2022/04/22 08:54:49;;;;;;;6.45;2.90;;;12.90;99.90;;;;;;5039861;28;20044;-55
2022/04/22 08:57:15;;;;;;;4.53;2.95;;;12.90;99.90;;;;;;5045182;28;20091;-51
2022/04/22 08:59:41;;;;;;;5.10;2.67;;;13.00;99.90;;;;;;5048060;28;20412;-50
2022/04/22 09:02:07;;;;;;;4.13;2.55;;;13.00;99.90;;;;;;5047971;28;20053;-55
2022/04/22 09:04:33;;;;;;;4.88;3.22;;;12.50;99.90;;;;;;5047898;28;20129;-49
2022/04/22 09:06:59;;;;;;;5.20;2.53;;;12.60;99.90;;;;;;5036171;28;20032;-56
2022/04/22 09:09:25;;;;;;;7.55;3.55;;;12.90;99.90;;;;;;5052724;28;20029;-57
2022/04/22 09:11:52;;;;;;;4.32;3.40;;;13.20;99.90;;;;;;5050176;28;20031;-56
2022/04/22 09:14:22;;;;;;;3.83;2.47;;;13.40;99.90;;;;;;5032635;28;20021;-57
2022/04/22 09:16:50;;;;;;;7.70;3.00;;;13.50;99.90;;;;;;5032826;28;20033;-51
2022/04/22 09:19:18;;;;;;;7.45;3.08;;;13.70;99.90;;;;;;5032618;28;20051;-53
2022/04/22 09:21:56;;;;;;;4.10;2.63;;;13.60;99.90;;;;;;5031913;28;20059;-51
2022/04/22 09:24:21;;;;;;;5.97;3.10;;;13.70;99.90;;;;;;5032391;28;20021;-55
2022/04/22 09:27:03;;;;;;;8.25;3.25;;;13.80;99.90;;;;;;5050390;28;20543;-54
2022/04/22 09:29:28;;;;;;;6.55;2.83;;;13.40;99.90;;;;;;5050038;28;20033;-52
2022/04/22 09:31:54;;;;;;;7.78;2.78;;;13.40;99.90;;;;;;5052243;28;20533;-56
2022/04/22 09:34:33;;;;;;;5.10;3.08;;;13.30;99.90;;;;;;5050460;28;20141;-53
2022/04/22 09:42:53;;;;;;;8.90;3.60;;;13.10;99.90;;;;;;5046392;28;20091;-52
2022/04/22 09:45:19;;;;;;;7.35;3.33;;;13.00;99.90;;;;;;5046466;28;20034;-54
2022/04/22 09:47:59;;;;;;;6.25;2.80;;;12.80;99.90;;;;;;5035656;28;20036;-54
2022/04/22 09:50:40;;;;;;;5.50;2.97;;;12.70;99.90;;;;;;5047348;28;20469;-54
2022/04/22 09:53:07;;;;;;;4.95;3.75;;;12.70;99.90;;;;;;5031362;28;20628;-57
2022/04/22 09:55:36;;;;;;;5.13;3.25;;;12.60;99.90;;;;;;5036945;28;20029;-56
2022/04/22 09:58:02;;;;;;;6.43;3.47;;;12.50;99.90;;;;;;5051825;28;20078;-58
2022/04/22 10:00:32;;;;;;;5.40;3.20;;;12.20;99.90;;;;;;5051208;28;20488;-58
2022/04/22 10:02:58;;;;;;;9.35;3.45;;;12.20;99.90;;;;;;5033931;28;20554;-58
2022/04/22 10:05:26;;;;;;;8.32;4.10;;;12.50;99.90;;;;;;5040522;28;20030;-53
2022/04/22 10:07:55;;;;;;;5.93;3.38;;;12.50;99.90;;;;;;5032698;28;20033;-57
2022/04/22 10:10:34;;;;;;;3.63;2.90;;;12.40;99.90;;;;;;5048145;28;20029;-54
2022/04/22 10:13:02;;;;;;;10.60;3.63;;;12.50;99.90;;;;;;5031427;28;20068;-55
2022/04/22 10:15:29;;;;;;;5.45;3.45;;;12.60;99.90;;;;;;5050154;28;20033;-53
2022/04/22 10:17:56;;;;;;;7.28;3.13;;;12.60;99.90;;;;;;5020384;28;20036;-54
2022/04/22 10:20:24;;;;;;;5.35;3.10;;;12.50;99.90;;;;;;5051516;28;20058;-55
2022/04/22 10:22:50;;;;;;;5.47;3.13;;;12.30;99.90;;;;;;5014111;28;20034;-52
2022/04/22 10:25:16;;;;;;;7.90;4.00;;;12.00;99.90;;;;;;5031217;28;20088;-52
2022/04/22 10:27:43;;;;;;;7.97;3.53;;;11.80;99.90;;;;;;5047872;28;20405;-56
2022/04/22 10:30:13;;;;;;;6.43;3.83;;;11.80;99.90;;;;;;5051120;28;20094;-51
2022/04/22 10:32:41;;;;;;;6.93;3.90;;;11.80;99.90;;;;;;5033944;28;20029;-54
2022/04/22 10:35:08;;;;;;;7.13;3.83;;;11.60;99.90;;;;;;5031301;28;20052;-57
2022/04/22 10:37:37;;;;;;;6.85;3.38;;;11.50;99.90;;;;;;5036691;28;20491;-58
2022/04/22 10:40:04;;;;;;;5.30;3.22;;;11.60;99.90;;;;;;5037120;28;20048;-51
2022/04/22 10:42:36;;;;;;;6.68;4.05;;;11.60;99.90;;;;;;5034901;28;20131;-57
2022/04/22 10:47:53;;;;;;;6.15;3.65;;;11.60;99.90;;;;;;5036929;28;20496;-52
2022/04/22 10:50:37;;;;;;;6.15;3.28;;;11.60;99.90;;;;;;5040860;28;20025;-53
2022/04/22 10:53:09;;;;;;;5.47;3.30;;;11.70;99.90;;;;;;5030428;28;20029;-54
2022/04/22 10:55:39;;;;;;;6.60;3.60;;;11.80;99.90;;;;;;5030779;28;20017;-52
2022/04/22 10:58:17;;;;;;;6.93;3.65;;;11.80;99.90;;;;;;5029842;28;20068;-55
2022/04/22 11:00:54;;;;;;;6.97;3.80;;;11.70;99.90;;;;;;5030984;28;20025;-50
2022/04/22 11:03:34;;;;;;;8.88;4.15;;;11.70;99.90;;;;;;5030467;28;20075;-57
2022/04/22 11:06:07;;;;;;;9.80;4.30;;;11.60;99.90;;;;;;5030456;28;20025;-54
2022/04/22 11:08:37;;;;;;;11.85;4.25;;;11.60;99.90;;;;;;5030525;28;20025;-56
2022/04/22 11:11:08;;;;;;;8.93;3.58;;;11.70;99.90;;;;;;5046067;28;20113;-56
2022/04/22 11:13:38;;;;;;;7.68;4.10;;;11.70;99.90;;;;;;5030262;28;20436;-54
2022/04/22 11:16:29;;;;;;;8.85;3.97;;;11.70;99.90;;;;;;5030805;28;20028;-52
2022/04/22 11:19:19;;;;;;;6.72;3.75;;;11.80;99.90;;;;;;5030415;28;20174;-50
2022/04/22 11:21:58;;;;;;;7.22;3.58;;;12.00;99.90;;;;;;5029882;28;20061;-53
2022/04/22 11:24:33;;;;;;;7.35;3.97;;;12.00;99.90;;;;;;5030139;28;20053;-54
2022/04/22 11:27:11;;;;;;;7.43;4.05;;;12.00;99.90;;;;;;5030117;28;20024;-57
2022/04/22 11:29:38;;;;;;;8.95;3.63;;;12.00;99.90;;;;;;5029980;28;20018;-56
2022/04/22 11:32:11;;;;;;;9.05;3.72;;;12.10;99.90;;;;;;5029814;28;20445;-56
2022/04/22 11:34:56;;;;;;;6.70;3.65;;;12.20;99.90;;;;;;5030343;28;20136;-54
2022/04/22 11:37:22;;;;;;;13.13;4.93;;;12.40;99.90;;;;;;5030080;28;20511;-52
2022/04/22 11:39:49;;;;;;;5.72;3.38;;;12.50;99.90;;;;;;5030052;28;20025;-55
2022/04/22 11:42:17;;;;;;;7.78;4.15;;;12.50;99.90;;;;;;5027952;28;20037;-54
2022/04/22 11:45:02;;;;;;;10.02;3.85;;;12.70;99.90;;;;;;5023133;28;20021;-51
2022/04/22 11:47:28;;;;;;;7.13;3.70;;;13.00;99.90;;;;;;5045205;28;20064;-53
2022/04/22 11:49:55;;;;;;;8.50;3.92;;;13.10;99.90;;;;;;5029833;28;20048;-51
2022/04/22 11:52:22;;;;;;;8.30;3.78;;;13.10;99.90;;;;;;5042459;28;20025;-56
2022/04/22 11:54:48;;;;;;;7.40;4.32;;;13.00;99.90;;;;;;5049689;28;20017;-56
2022/04/22 11:57:17;;;;;;;5.43;3.97;;;13.10;99.90;;;;;;5048001;28;20036;-58
2022/04/22 12:05:31;;;;;;;5.85;3.72;;;13.10;99.90;;;;;;5031629;28;20064;-54
2022/04/22 12:05:34;;;;;;;9.15;3.85;;;13.30;99.90;;;;;;5009631;28;20122;-59
2022/04/22 12:08:05;;;;;;;7.32;4.55;;;13.40;99.90;;;;;;5009762;28;20384;-57
2022/04/22 12:10:33;;;;;;;6.75;4.03;;;13.70;99.90;;;;;;5048498;28;20040;-55
2022/04/22 12:13:01;;;;;;;8.40;4.07;;;13.50;99.90;;;;;;5030709;28;20033;-54
2022/04/22 12:15:27;;;;;;;7.68;3.28;;;13.40;99.90;;;;;;5049174;28;20053;-56
2022/04/22 12:17:52;;;;;;;8.38;4.03;;;13.50;99.90;;;;;;5049545;28;20111;-54
2022/04/22 12:20:19;;;;;;;10.15;4.45;;;13.70;99.90;;;;;;5049001;28;20029;-52
2022/04/22 12:22:48;;;;;;;6.65;4.25;;;13.90;99.90;;;;;;5047065;28;20017;-55
2022/04/22 12:25:16;;;;;;;8.73;3.92;;;13.90;99.90;;;;;;5031040;28;20028;-53
2022/04/22 12:27:43;;;;;;;7.97;4.47;;;14.10;99.90;;;;;;5048579;28;20025;-51
2022/04/22 12:30:11;;;;;;;8.23;4.25;;;14.10;99.90;;;;;;5035123;28;20025;-58
2022/04/22 12:32:38;;;;;;;7.18;4.28;;;13.90;99.90;;;;;;5032762;28;20028;-56
2022/04/22 12:35:16;;;;;;;8.50;4.72;;;13.90;99.90;;;;;;5048858;28;20109;-53
2022/04/22 12:37:52;;;;;;;12.07;4.10;;;14.20;99.90;;;;;;5048455;28;20029;-56
2022/04/22 12:40:19;;;;;;;8.93;3.90;;;14.30;99.90;;;;;;5049264;28;20022;-53
2022/04/22 12:42:45;;;;;;;6.32;3.53;;;14.40;99.90;;;;;;5047999;28;20250;-53
2022/04/22 12:53:41;;;;;;;9.57;4.20;;;14.80;99.90;;;;;;5029122;28;20095;-51
2022/04/22 12:56:09;;;;;;;5.53;3.30;;;14.80;99.90;;;;;;5040089;28;20029;-57
2022/04/22 12:58:57;;;;;;;9.30;3.88;;;15.00;99.90;;;;;;5046429;28;20030;-49
2022/04/22 13:01:28;;;;;;;8.00;4.25;;;15.00;99.90;;;;;;5019503;28;20021;-58
2022/04/22 13:03:57;;;;;;;6.30;4.18;;;15.00;99.90;;;;;;5029908;28;20024;-56
2022/04/22 13:06:35;;;;;;;7.65;3.20;;;15.10;99.90;;;;;;5039729;28;20432;-58
2022/04/22 13:09:01;;;;;;;7.40;4.07;;;15.00;99.90;;;;;;5028881;28;20839;-53
2022/04/22 13:11:26;;;;;;;10.77;4.75;;;15.10;99.90;;;;;;5029287;28;20024;-55
2022/04/22 13:13:52;;;;;;;8.50;4.72;;;15.10;99.90;;;;;;5028775;28;20029;-56
2022/04/22 13:16:17;;;;;;;8.38;4.25;;;15.00;99.90;;;;;;5028654;28;20032;-56
2022/04/22 13:18:43;;;;;;;7.28;4.50;;;15.00;99.90;;;;;;5027842;28;20056;-59
2022/04/22 13:21:08;;;;;;;6.90;4.38;;;15.00;99.90;;;;;;5029604;28;20048;-56
2022/04/22 13:23:34;;;;;;;7.53;3.78;;;15.20;99.90;;;;;;5028389;28;20442;-53
2022/04/22 13:25:59;;;;;;;11.52;4.13;;;15.20;99.90;;;;;;5031212;28;20107;-56
2022/04/22 13:28:25;;;;;;;8.15;4.00;;;15.40;99.90;;;;;;5048480;28;20140;-54
2022/04/22 13:30:50;;;;;;;8.70;4.25;;;15.50;99.90;;;;;;5046790;28;20032;-57
2022/04/22 13:33:16;;;;;;;5.72;3.75;;;15.60;99.90;;;;;;5028311;28;20584;-57
2022/04/22 13:35:41;;;;;;;10.57;4.35;;;15.70;99.90;;;;;;5028942;28;20018;-53
2022/04/22 13:38:07;;;;;;;5.53;3.60;;;15.60;99.90;;;;;;5048567;28;20404;-56
2022/04/22 13:40:33;;;;;;;4.78;3.67;;;15.80;99.90;;;;;;5048479;28;20021;-54
2022/04/22 13:42:58;;;;;;;5.57;3.80;;;16.10;99.90;;;;;;5048937;28;20087;-55
2022/04/22 13:53:36;;;;;;;5.65;3.60;;;16.10;99.90;;;;;;5051959;28;20085;-52
2022/04/22 13:56:01;;;;;;;4.60;3.72;;;16.10;99.90;;;;;;5032441;28;20452;-53
2022/04/22 13:58:27;;;;;;;5.28;3.22;;;16.10;99.90;;;;;;5031799;28;20539;-54
2022/04/22 14:00:53;;;;;;;6.00;3.53;;;16.30;99.90;;;;;;5031938;28;20076;-53
2022/04/22 14:03:19;;;;;;;9.02;3.88;;;16.50;99.90;;;;;;5031215;28;20030;-54
2022/04/22 14:05:45;;;;;;;5.03;2.97;;;16.70;99.90;;;;;;5034041;28;20032;-54
2022/04/22 14:08:11;;;;;;;6.38;3.97;;;16.70;99.90;;;;;;5031684;28;20049;-56
2022/04/22 14:10:37;;;;;;;5.60;3.63;;;16.70;99.90;;;;;;5031368;28;20051;-56
2022/04/22 14:13:03;;;;;;;5.95;3.67;;;16.50;99.60;;;;;;5031551;28;20017;-57
2022/04/22 14:15:28;;;;;;;7.20;3.97;;;16.30;99.30;;;;;;5040142;28;20100;-57